Time;durP1;ratioP1;P1;durP2;ratioP2;P2;SDS_P1;SDS_P2;PMS_P1;PMS_P2;Temp;Humidity;BMP_temperature;BMP_pressure;BME280_temperature;BME280_humidity;BME280_pressure;Samples;Min_cycle;Max_cycle;Signal;HPM_P1;HPM_P2
2023/09/06 00:03:00;;;;;;;2.93;1.50;;;;;;;21.42;61.42;96946.47;10455456;28;20040;-26
2023/09/06 00:08:06;;;;;;;4.40;1.53;;;;;;;21.42;60.94;96926.97;10455827;28;20053;-26
2023/09/06 00:13:07;;;;;;;;;;;;;;;21.41;60.95;96937.16;10455636;28;20044;-26
2023/09/06 00:18:08;;;;;;;1.77;1.33;;;;;;;21.40;61.04;96931.19;10457293;28;19917;-26
2023/09/06 00:23:09;;;;;;;1.37;1.10;;;;;;;21.38;61.46;96927.84;10460358;28;20041;-25
2023/09/06 00:28:09;;;;;;;1.67;1.10;;;;;;;21.39;61.14;96929.50;10454905;28;20421;-26
2023/09/06 00:33:09;;;;;;;5.87;1.90;;;;;;;21.34;61.04;96931.28;10459063;28;20082;-26
2023/09/06 00:38:10;;;;;;;1.60;1.47;;;;;;;21.38;60.82;96940.56;10458619;28;20060;-26
2023/09/06 00:43:10;;;;;;;1.30;1.20;;;;;;;21.33;60.71;96944.88;10457140;28;20295;-26
2023/09/06 00:48:12;;;;;;;2.17;1.47;;;;;;;21.39;60.76;96943.97;10453476;28;20422;-26
2023/09/06 00:53:15;;;;;;;1.52;1.23;;;;;;;21.37;60.98;96943.97;10456760;28;20025;-26
2023/09/06 00:58:18;;;;;;;2.60;2.00;;;;;;;21.39;60.66;96939.69;10453295;28;20453;-26
2023/09/06 01:03:19;;;;;;;1.23;1.13;;;;;;;21.36;60.61;96939.75;10459071;28;20029;-25
2023/09/06 01:08:27;;;;;;;2.10;1.27;;;;;;;21.34;60.65;96931.28;10458249;28;20029;-26
2023/09/06 01:13:28;;;;;;;1.50;1.40;;;;;;;21.37;60.83;96933.78;10457103;28;20025;-26
2023/09/06 01:18:29;;;;;;;2.93;1.53;;;;;;;21.38;60.56;96938.03;10455003;28;20033;-26
2023/09/06 01:23:41;;;;;;;2.05;1.70;;;;;;;21.38;60.35;96942.28;10463046;28;20115;-26
2023/09/06 01:28:42;;;;;;;1.98;1.27;;;;;;;21.28;60.60;96926.22;10450319;28;20028;-26
2023/09/06 01:33:43;;;;;;;1.95;1.38;;;;;;;21.33;60.57;96934.69;10450397;28;20039;-26
2023/09/06 01:38:43;;;;;;;1.40;1.30;;;;;;;21.35;60.32;96938.06;10451721;28;20057;-26
2023/09/06 01:43:44;;;;;;;1.07;0.97;;;;;;;21.26;60.49;96933.03;10449604;28;20423;-26
2023/09/06 01:48:45;;;;;;;1.43;1.27;;;;;;;21.22;60.47;96945.81;10451047;28;20478;-26
2023/09/06 01:53:45;;;;;;;0.90;0.90;;;;;;;21.17;60.11;96937.34;10468187;28;20021;-26
2023/09/06 01:58:46;;;;;;;1.20;1.10;;;;;;;21.15;60.09;96934.78;10450455;28;20478;-26
2023/09/06 02:03:46;;;;;;;1.23;1.00;;;;;;;21.18;59.79;96937.34;10449479;28;20399;-26
2023/09/06 02:08:46;;;;;;;1.27;1.17;;;;;;;21.18;59.96;96937.34;10457669;28;20108;-25
2023/09/06 02:13:47;;;;;;;1.40;1.08;;;;;;;21.18;59.57;96932.25;10450668;28;20525;-26
2023/09/06 02:18:48;;;;;;;1.90;1.45;;;;;;;21.17;59.45;96927.16;10450000;28;20548;-25
2023/09/06 02:23:48;;;;;;;1.40;1.30;;;;;;;21.17;59.58;96922.06;10459031;28;20037;-26
2023/09/06 02:28:50;;;;;;;1.97;1.30;;;;;;;21.14;59.54;96924.63;10459622;28;20040;-26
2023/09/06 02:33:50;;;;;;;1.63;1.42;;;;;;;21.13;59.49;96926.31;10456252;28;20033;-26
2023/09/06 02:38:51;;;;;;;1.10;1.00;;;;;;;21.12;59.28;96924.63;10454893;28;20029;-26
2023/09/06 02:43:51;;;;;;;2.30;1.38;;;;;;;21.12;59.11;96922.09;10450678;28;20522;-26
2023/09/06 02:48:52;;;;;;;2.67;1.53;;;;;;;21.14;58.98;96924.63;10450000;28;20495;-26
2023/09/06 02:53:55;;;;;;;1.43;1.33;;;;;;;21.13;59.24;96926.31;10450182;28;20501;-26
2023/09/06 02:58:59;;;;;;;2.00;1.50;;;;;;;21.12;59.13;96926.31;10448516;28;20437;-25
2023/09/06 03:03:59;;;;;;;2.05;1.48;;;;;;;21.13;59.02;96916.13;10449484;28;20033;-25
2023/09/06 03:09:06;;;;;;;1.40;1.30;;;;;;;21.13;58.81;96920.41;10451735;28;20029;-26
2023/09/06 03:14:07;;;;;;;1.60;1.50;;;;;;;21.11;59.21;96928.03;10449578;28;20315;-27
2023/09/06 03:19:10;;;;;;;2.00;1.77;;;;;;;21.09;58.85;96928.91;10449778;28;20033;-26
2023/09/06 03:24:14;;;;;;;1.42;1.27;;;;;;;21.09;58.69;96929.75;10455335;28;20072;-26
2023/09/06 03:29:15;;;;;;;1.73;1.63;;;;;;;21.10;59.28;96933.13;10448542;28;20029;-26
2023/09/06 03:34:21;;;;;;;2.42;1.45;;;;;;;21.10;58.86;96933.13;10448703;28;20024;-26
2023/09/06 03:39:28;;;;;;;2.30;2.05;;;;;;;21.08;58.29;96935.72;10448725;28;20041;-26
2023/09/06 03:44:31;;;;;;;2.47;1.55;;;;;;;21.09;58.61;96945.03;10457518;28;20056;-24
2023/09/06 03:49:35;;;;;;;2.38;1.88;;;;;;;21.11;58.45;96942.47;10449234;28;20075;-26
2023/09/06 03:54:36;;;;;;;2.10;1.77;;;;;;;21.07;58.46;96946.72;10449369;28;20029;-26
2023/09/06 03:59:37;;;;;;;1.73;1.63;;;;;;;21.10;58.24;96953.50;10449397;28;20032;-27
2023/09/06 04:04:40;;;;;;;1.95;1.40;;;;;;;21.08;58.24;96956.09;10463127;28;20035;-25
2023/09/06 04:09:42;;;;;;;1.60;1.50;;;;;;;20.97;57.84;96962.91;10462934;28;20375;-26
2023/09/06 04:14:43;;;;;;;3.10;1.52;;;;;;;20.41;56.25;96961.47;10465006;28;20025;-28
2023/09/06 04:19:44;;;;;;;1.90;1.80;;;;;;;20.33;55.35;96962.38;10474428;28;20039;-25
2023/09/06 04:24:45;;;;;;;3.85;2.40;;;;;;;20.17;54.81;96960.72;10472213;28;20295;-26
2023/09/06 04:29:46;;;;;;;1.65;1.52;;;;;;;20.13;54.73;96969.19;10472341;28;20098;-26
2023/09/06 04:34:46;;;;;;;2.83;1.70;;;;;;;20.00;54.65;96970.06;10474848;28;20032;-26
2023/09/06 04:39:47;;;;;;;2.35;1.60;;;;;;;19.96;54.38;96971.75;10465794;28;20025;-26
2023/09/06 04:44:47;;;;;;;1.70;1.50;;;;;;;19.87;54.34;96965.81;10467359;28;20091;-26
2023/09/06 04:49:48;;;;;;;4.03;2.40;;;;;;;19.91;54.26;96967.53;10481000;28;20033;-26
2023/09/06 04:54:49;;;;;;;3.25;2.13;;;;;;;19.96;54.45;96976.84;10459413;28;20477;-26
2023/09/06 04:59:49;;;;;;;2.25;1.85;;;;;;;19.85;54.35;96972.63;10462187;28;20044;-26
2023/09/06 05:04:50;;;;;;;2.35;1.92;;;;;;;19.91;54.50;96983.59;10453215;28;20074;-27
2023/09/06 05:09:56;;;;;;;2.60;2.13;;;;;;;19.87;54.42;96984.47;10457144;28;20040;-28
2023/09/06 05:14:57;;;;;;;2.20;1.85;;;;;;;19.90;54.25;96986.13;10453151;28;20418;-26
2023/09/06 05:20:33;;;;;;;4.70;1.70;;;;;;;20.43;54.43;96993.69;10458712;28;20041;-25
2023/09/06 05:25:39;;;;;;;5.45;2.38;;;;;;;20.45;54.38;96994.53;10467886;28;20120;-26
2023/09/06 05:30:42;;;;;;;2.08;1.63;;;;;;;20.42;54.26;96995.41;10465089;28;20041;-26
2023/09/06 05:35:44;;;;;;;6.45;2.03;;;;;;;20.38;54.47;96991.16;10455841;28;20516;-25
2023/09/06 05:40:48;;;;;;;2.78;1.80;;;;;;;20.35;54.71;96997.09;10452180;28;20033;-25
2023/09/06 05:45:54;;;;;;;2.95;1.70;;;;;;;20.35;54.58;97001.34;10451779;28;20452;-26
2023/09/06 05:50:55;;;;;;;5.40;2.08;;;;;;;20.34;54.84;96999.66;10450369;28;20082;-26
2023/09/06 05:55:57;;;;;;;2.25;1.88;;;;;;;20.36;54.46;96998.78;10451227;28;20514;-26
2023/09/06 06:00:57;;;;;;;1.92;1.70;;;;;;;20.37;54.73;96989.47;10451081;28;20376;-26
2023/09/06 06:05:58;;;;;;;2.70;1.73;;;;;;;20.38;54.88;96989.47;10452343;28;20029;-26
2023/09/06 06:10:58;;;;;;;3.20;1.83;;;;;;;20.37;55.04;96992.00;10453166;28;20333;-26
2023/09/06 06:15:59;;;;;;;3.03;1.70;;;;;;;20.40;55.00;96996.22;10451549;28;20029;-25
2023/09/06 06:20:59;;;;;;;1.97;1.60;;;;;;;20.42;54.85;96994.53;10451372;28;20037;-25
2023/09/06 06:25:59;;;;;;;2.07;1.50;;;;;;;20.45;55.29;96989.44;10454877;28;20295;-26
2023/09/06 06:31:00;;;;;;;2.97;1.93;;;;;;;20.49;55.45;96985.19;10449532;28;20124;-26
2023/09/06 06:36:00;;;;;;;2.47;1.80;;;;;;;20.58;55.42;96991.09;10450410;28;20103;-26
2023/09/06 06:41:01;;;;;;;3.37;1.83;;;;;;;20.60;55.47;96989.38;10455129;28;20317;-26
2023/09/06 06:46:04;;;;;;;2.23;1.90;;;;;;;20.70;55.22;96987.63;10449738;28;20040;-26
2023/09/06 06:51:04;;;;;;;2.00;1.88;;;;;;;20.73;55.52;96985.91;10449820;28;20111;-26
2023/09/06 06:56:05;;;;;;;2.50;1.90;;;;;;;20.74;55.78;96987.63;10451219;28;20029;-26
2023/09/06 07:01:05;;;;;;;3.73;2.27;;;;;;;20.77;55.83;96981.66;10454504;28;20082;-25
2023/09/06 07:06:05;;;;;;;3.13;1.97;;;;;;;20.79;56.27;96985.06;10454532;28;20033;-26
2023/09/06 07:11:07;;;;;;;5.37;1.90;;;;;;;20.79;56.65;96990.16;10452887;28;20086;-26
2023/09/06 07:16:07;;;;;;;2.47;1.70;;;;;;;20.78;56.58;96989.31;10451997;28;20040;-26
2023/09/06 07:21:07;;;;;;;2.80;2.03;;;;;;;20.76;56.50;96996.09;10450801;28;20411;-27
2023/09/06 07:26:09;;;;;;;4.00;2.30;;;;;;;20.80;57.30;96995.22;10449122;28;20326;-26
2023/09/06 07:31:12;;;;;;;4.10;2.13;;;;;;;20.79;57.25;97000.34;10448635;28;20527;-26
2023/09/06 07:36:13;;;;;;;4.32;2.35;;;;;;;20.77;57.49;96995.25;10448990;28;20029;-26
2023/09/06 07:41:13;;;;;;;3.58;2.33;;;;;;;20.83;58.19;97007.94;10450289;28;20029;-26
2023/09/06 07:46:16;;;;;;;3.90;1.88;;;;;;;20.86;57.82;97010.50;10456946;28;20552;-27
2023/09/06 07:51:16;;;;;;;3.45;1.95;;;;;;;20.87;57.93;97009.66;10456173;28;20095;-26
2023/09/06 07:56:17;;;;;;;2.57;1.90;;;;;;;20.91;57.51;97011.34;10456535;28;20071;-27
2023/09/06 08:01:17;;;;;;;2.97;1.97;;;;;;;20.93;57.96;97004.53;10458382;28;20486;-26
2023/09/06 08:06:17;;;;;;;2.30;2.10;;;;;;;20.96;57.36;97007.06;10456069;28;20494;-26
2023/09/06 08:11:18;;;;;;;1.87;1.70;;;;;;;20.97;57.29;97015.56;10456166;28;20091;-26
2023/09/06 08:16:19;;;;;;;1.88;1.65;;;;;;;20.99;57.27;97019.75;10459079;28;20028;-26
2023/09/06 08:21:19;;;;;;;2.17;1.77;;;;;;;21.00;57.24;97021.47;10457478;28;20032;-26
2023/09/06 08:26:19;;;;;;;2.30;1.87;;;;;;;21.02;57.32;97022.31;10455674;28;20033;-26
2023/09/06 08:31:20;;;;;;;2.60;1.63;;;;;;;21.03;57.23;97011.25;10454745;28;20102;-26
2023/09/06 08:36:20;;;;;;;2.65;1.33;;;;;;;21.04;57.22;97007.03;10454656;28;20326;-26
2023/09/06 08:41:22;;;;;;;4.20;1.70;;;;;;;21.00;57.29;97006.19;10456286;28;20074;-26
2023/09/06 08:46:29;;;;;;;3.45;1.95;;;;;;;21.04;57.22;97012.94;10457544;28;20029;-26
2023/09/06 08:51:35;;;;;;;3.30;2.20;;;;;;;21.05;57.43;96999.38;10453420;28;20540;-26
2023/09/06 08:56:35;;;;;;;1.55;1.38;;;;;;;21.05;57.44;96994.28;10454044;28;20029;-26
2023/09/06 09:01:37;;;;;;;2.27;1.70;;;;;;;21.04;57.02;96987.50;10453093;28;20052;-26
2023/09/06 09:06:42;;;;;;;2.28;1.80;;;;;;;21.05;57.32;96994.28;10453852;28;20303;-26
2023/09/06 09:11:45;;;;;;;4.03;1.30;;;;;;;21.07;57.43;96996.81;10453082;28;20068;-26
2023/09/06 09:16:55;;;;;;;2.33;2.13;;;;;;;21.05;57.45;96996.81;10453361;28;20037;-26
2023/09/06 09:21:56;;;;;;;2.75;1.80;;;;;;;21.04;57.61;96997.66;10456010;28;20399;-26
2023/09/06 09:26:57;;;;;;;2.08;1.67;;;;;;;21.05;57.90;97001.91;10461261;28;20029;-26
2023/09/06 09:32:04;;;;;;;2.33;1.63;;;;;;;21.03;57.63;96993.44;10452284;28;20522;-26
2023/09/06 09:37:05;;;;;;;1.92;1.38;;;;;;;21.05;57.60;96989.19;10452357;28;20041;-26
2023/09/06 09:42:09;;;;;;;2.17;1.80;;;;;;;21.05;57.82;96991.72;10451803;28;20552;-26
2023/09/06 09:47:14;;;;;;;1.73;1.55;;;;;;;21.05;57.66;96989.19;10451967;28;20518;-27
2023/09/06 09:52:16;;;;;;;1.92;1.73;;;;;;;21.06;57.73;96980.69;10451818;28;20083;-26
2023/09/06 09:57:21;;;;;;;1.98;1.77;;;;;;;21.07;57.53;96977.28;10451876;28;20025;-26
2023/09/06 10:02:22;;;;;;;2.55;1.60;;;;;;;21.06;57.95;96974.75;10455152;28;20056;-26
2023/09/06 10:07:24;;;;;;;1.52;1.40;;;;;;;21.08;57.82;96980.69;10451076;28;20120;-26
2023/09/06 10:12:26;;;;;;;1.50;1.40;;;;;;;21.06;58.15;96970.50;10451059;28;20040;-26
2023/09/06 10:17:26;;;;;;;2.30;1.73;;;;;;;21.05;57.98;96971.34;10455455;28;20036;-26
2023/09/06 10:22:27;;;;;;;1.67;1.50;;;;;;;21.07;58.13;96972.19;10454074;28;20095;-25
2023/09/06 10:27:32;;;;;;;2.40;1.40;;;;;;;21.08;58.09;96966.25;10450495;28;20032;-26
2023/09/06 10:32:41;;;;;;;1.90;1.60;;;;;;;21.09;58.10;96955.22;10449885;28;20483;-26
2023/09/06 10:38:18;;;;;;;1.85;1.65;;;;;;;21.08;58.09;96956.09;10450500;28;20059;-27
2023/09/06 10:43:23;;;;;;;2.00;1.65;;;;;;;21.10;58.23;96959.47;10449661;28;20049;-27
2023/09/06 10:48:24;;;;;;;1.95;1.40;;;;;;;21.11;58.25;96960.28;10450166;28;20098;-26
2023/09/06 10:53:25;;;;;;;3.97;1.92;;;;;;;21.11;58.27;96958.59;10449604;28;20025;-26
2023/09/06 10:58:27;;;;;;;4.70;2.80;;;;;;;21.11;58.53;96953.50;10450342;28;20552;-26
2023/09/06 11:03:31;;;;;;;2.50;2.20;;;;;;;21.10;58.64;96951.81;10457981;28;20033;-26
2023/09/06 11:08:33;;;;;;;3.72;2.50;;;;;;;21.13;58.65;96950.97;10454649;28;20037;-26
2023/09/06 11:13:35;;;;;;;3.80;2.53;;;;;;;21.15;58.66;96947.53;10452723;28;20495;-26
2023/09/06 11:18:47;;;;;;;6.25;4.80;;;;;;;21.15;58.56;96944.97;10456965;28;20060;-26
2023/09/06 11:23:52;;;;;;;7.95;5.43;;;;;;;21.16;58.40;96931.41;10461719;28;20262;-26
2023/09/06 11:29:06;;;;;;;6.80;4.07;;;;;;;21.13;58.67;96933.97;10462204;28;20036;-25
2023/09/06 11:34:09;;;;;;;4.20;3.58;;;;;;;21.14;58.59;96928.00;10463670;28;20119;-26
2023/09/06 11:39:22;;;;;;;4.93;3.65;;;;;;;21.14;58.71;96919.53;10463437;28;20112;-26
2023/09/06 11:44:23;;;;;;;4.68;3.50;;;;;;;21.15;58.60;96923.78;10463547;28;20067;-26
2023/09/06 11:49:25;;;;;;;4.40;3.83;;;;;;;21.15;58.67;96919.50;10460984;28;20029;-26
2023/09/06 11:54:26;;;;;;;4.20;3.17;;;;;;;21.14;58.87;96907.63;10459570;28;20033;-26
2023/09/06 11:59:28;;;;;;;5.35;3.55;;;;;;;21.14;58.73;96912.72;10461539;28;20387;-27
2023/09/06 12:04:31;;;;;;;5.03;3.30;;;;;;;21.14;58.80;96907.63;10471415;28;20033;-26
2023/09/06 12:09:32;;;;;;;4.70;3.33;;;;;;;21.14;58.87;96905.09;10467048;28;20479;-26
2023/09/06 12:14:33;;;;;;;5.07;3.08;;;;;;;21.13;59.06;96894.94;10466741;28;20041;-26
2023/09/06 12:19:33;;;;;;;5.70;2.87;;;;;;;21.15;59.86;96893.22;10462413;28;20517;-25
2023/09/06 12:24:34;;;;;;;4.53;2.97;;;;;;;21.18;60.33;96888.94;10474749;28;20295;-25
2023/09/06 12:29:34;;;;;;;6.72;3.25;;;;;;;21.20;60.49;96887.22;10464855;28;20834;-26
2023/09/06 12:34:35;;;;;;;8.83;3.20;;;;;;;21.17;60.55;96886.41;10467186;28;20509;-26
2023/09/06 12:39:35;;;;;;;24.60;4.53;;;;;;;21.23;60.90;96877.00;10461418;28;20090;-27
2023/09/06 12:44:35;;;;;;;27.10;4.53;;;;;;;21.23;60.53;96877.00;10469175;28;20090;-26
2023/09/06 12:49:36;;;;;;;18.17;3.73;;;;;;;21.22;60.21;96870.22;10468262;28;20503;-26
2023/09/06 12:54:36;;;;;;;9.82;4.18;;;;;;;21.23;60.12;96871.09;10467123;28;20491;-26
2023/09/06 12:59:38;;;;;;;6.90;2.90;;;;;;;21.23;60.20;96866.81;10468344;28;20048;-25
2023/09/06 13:04:38;;;;;;;11.25;3.20;;;;;;;21.23;60.52;96871.91;10463205;28;20037;-26
2023/09/06 13:09:39;;;;;;;8.40;3.23;;;;;;;21.23;59.84;96877.00;10458324;28;20045;-26
2023/09/06 13:14:39;;;;;;;5.87;3.33;;;;;;;21.25;59.83;96879.56;10460239;28;20368;-25
2023/09/06 13:19:43;;;;;;;12.73;2.80;;;;;;;21.24;59.60;96863.41;10463371;28;20029;-25
2023/09/06 13:24:44;;;;;;;8.88;3.00;;;;;;;21.24;59.89;96860.88;10467018;28;20044;-25
2023/09/06 13:29:44;;;;;;;5.75;2.40;;;;;;;21.26;59.84;96861.72;10470021;28;20410;-26
2023/09/06 13:34:46;;;;;;;5.63;2.40;;;;;;;21.26;59.61;96856.63;10455980;28;20033;-25
2023/09/06 13:39:46;;;;;;;6.32;2.78;;;;;;;21.27;59.79;96849.81;10457371;28;20043;-26
2023/09/06 13:44:46;;;;;;;8.87;4.03;;;;;;;21.28;60.02;96854.91;10459776;28;20418;-26
2023/09/06 13:49:49;;;;;;;5.63;3.27;;;;;;;21.23;59.69;96841.34;10466789;28;20437;-25
2023/09/06 13:54:49;;;;;;;9.23;3.90;;;;;;;21.28;60.46;96849.81;10462125;28;20028;-25
2023/09/06 13:59:50;;;;;;;7.70;3.27;;;;;;;21.26;59.73;96851.53;10462439;28;20423;-26
2023/09/06 14:04:52;;;;;;;7.10;3.40;;;;;;;21.20;59.66;96838.84;10457077;28;20025;-26
2023/09/06 14:09:54;;;;;;;14.98;7.05;;;;;;;21.26;59.90;96849.00;10454622;28;20336;-26
2023/09/06 14:14:56;;;;;;;10.60;6.05;;;;;;;21.32;60.80;96836.19;10461536;28;20490;-25
2023/09/06 14:19:57;;;;;;;13.13;5.20;;;;;;;21.28;61.23;96819.25;10458358;28;20548;-25
2023/09/06 14:24:57;;;;;;;7.90;5.13;;;;;;;21.28;61.37;96826.91;10472730;28;20029;-26
2023/09/06 14:29:59;;;;;;;8.57;5.27;;;;;;;21.28;61.31;96824.34;10459618;28;20494;-26
2023/09/06 14:34:59;;;;;;;9.75;4.93;;;;;;;21.29;61.38;96822.66;10469616;28;20056;-25
2023/09/06 14:40:00;;;;;;;5.00;4.50;;;;;;;21.28;61.35;96824.34;10464294;28;20482;-26
2023/09/06 14:45:02;;;;;;;6.28;4.35;;;;;;;21.31;61.31;96821.75;10463041;28;20322;-27
2023/09/06 14:50:03;;;;;;;8.52;4.47;;;;;;;21.31;61.26;96813.28;10461479;28;20565;-26
2023/09/06 14:55:04;;;;;;;8.20;4.90;;;;;;;21.31;61.29;96814.13;10461737;28;20028;-27
2023/09/06 15:00:05;;;;;;;7.35;4.45;;;;;;;21.32;61.25;96810.72;10461093;28;20052;-26
2023/09/06 15:05:06;;;;;;;6.07;4.50;;;;;;;21.31;61.35;96819.22;10476738;28;20028;-26
2023/09/06 15:10:11;;;;;;;7.70;4.07;;;;;;;21.32;61.45;96808.16;10457299;28;20495;-26
2023/09/06 15:15:15;;;;;;;8.25;4.30;;;;;;;21.30;61.36;96807.34;10449462;28;20059;-26
2023/09/06 15:20:15;;;;;;;4.90;3.80;;;;;;;21.32;61.27;96807.34;10455466;28;20466;-26
2023/09/06 15:25:16;;;;;;;4.70;3.77;;;;;;;21.31;61.29;96809.03;10452136;28;20072;-26
2023/09/06 15:30:16;;;;;;;5.10;3.53;;;;;;;21.32;61.41;96810.72;10452239;28;20040;-26
2023/09/06 15:35:16;;;;;;;6.43;3.80;;;;;;;21.32;61.40;96812.44;10448867;28;20136;-25
2023/09/06 15:40:18;;;;;;;4.63;3.65;;;;;;;21.29;61.38;96800.56;10449525;28;20098;-25
2023/09/06 15:45:19;;;;;;;5.10;3.40;;;;;;;21.32;61.39;96812.44;10448729;28;20037;-26
2023/09/06 15:50:20;;;;;;;4.83;3.73;;;;;;;21.32;61.55;96812.44;10448285;28;20104;-28
2023/09/06 15:55:20;;;;;;;4.40;3.22;;;;;;;21.30;61.52;96804.78;10451565;28;20279;-26
2023/09/06 16:00:21;;;;;;;4.22;3.38;;;;;;;21.31;61.61;96806.47;10448116;28;20064;-26
2023/09/06 16:05:21;;;;;;;5.13;3.80;;;;;;;21.27;61.59;96807.38;10454927;28;20037;-26
2023/09/06 16:10:23;;;;;;;5.07;2.63;;;;;;;21.30;61.52;96809.06;10455774;28;20495;-26
2023/09/06 16:15:24;;;;;;;5.38;2.92;;;;;;;21.25;61.24;96798.94;10455611;28;20035;-25
2023/09/06 16:20:24;;;;;;;3.67;3.13;;;;;;;21.30;61.67;96814.97;10462605;28;20037;-27
2023/09/06 16:25:25;;;;;;;4.13;3.63;;;;;;;21.31;61.36;96814.13;10455176;28;20044;-26
2023/09/06 16:30:26;;;;;;;3.97;3.30;;;;;;;21.31;61.54;96811.56;10458382;28;20119;-26
2023/09/06 16:35:26;;;;;;;4.75;3.00;;;;;;;21.31;61.41;96814.13;10450704;28;20029;-26
2023/09/06 16:40:27;;;;;;;3.53;3.00;;;;;;;21.30;61.36;96825.16;10446508;28;20529;-26
2023/09/06 16:45:27;;;;;;;3.80;3.17;;;;;;;21.32;61.27;96825.16;10455379;28;20033;-26
2023/09/06 16:50:28;;;;;;;3.35;2.70;;;;;;;21.30;61.36;96822.63;10476174;28;20036;-26
2023/09/06 16:55:28;;;;;;;2.97;2.67;;;;;;;21.33;61.50;96814.97;10454711;28;20033;-26
2023/09/06 17:00:31;;;;;;;4.20;3.20;;;;;;;21.39;61.71;96822.53;10451073;28;20025;-26
2023/09/06 17:05:33;;;;;;;4.22;2.95;;;;;;;21.36;61.40;96822.56;10454297;28;20045;-26
2023/09/06 17:10:34;;;;;;;5.05;2.70;;;;;;;21.33;61.36;96826.84;10462627;28;20135;-26
2023/09/06 17:15:34;;;;;;;4.93;2.40;;;;;;;21.35;61.40;96836.16;10452430;28;20425;-25
2023/09/06 17:20:35;;;;;;;4.07;2.93;;;;;;;21.33;61.29;96842.13;10451222;28;20025;-26
2023/09/06 17:25:35;;;;;;;3.10;2.72;;;;;;;21.33;61.39;96845.53;10450582;28;20048;-26
2023/09/06 17:30:37;;;;;;;3.87;3.07;;;;;;;21.33;61.39;96858.28;10448565;28;20115;-26
2023/09/06 17:35:39;;;;;;;2.47;2.28;;;;;;;21.30;61.45;96847.25;10452502;28;20116;-26
2023/09/06 17:40:45;;;;;;;3.47;2.47;;;;;;;21.32;61.34;96859.09;10458204;28;20502;-26
2023/09/06 17:45:46;;;;;;;3.63;2.47;;;;;;;21.32;61.62;96856.56;10452605;28;20051;-26
2023/09/06 17:50:54;;;;;;;3.80;2.30;;;;;;;21.32;61.40;96851.47;10452278;28;20068;-26
2023/09/06 17:56:12;;;;;;;3.17;2.38;;;;;;;21.33;61.50;96858.28;10450522;28;20413;-26
2023/09/06 18:01:14;;;;;;;2.88;2.30;;;;;;;21.32;61.54;96856.56;10455289;28;20063;-26
2023/09/06 18:06:16;;;;;;;4.63;2.50;;;;;;;21.32;60.95;96859.09;10462912;28;20041;-29
2023/09/06 18:11:17;;;;;;;2.92;2.35;;;;;;;21.33;61.38;96867.59;10455975;28;20537;-25
2023/09/06 18:16:18;;;;;;;4.72;2.30;;;;;;;21.32;61.42;96876.94;10455026;28;20036;-25
2023/09/06 18:21:18;;;;;;;5.10;2.47;;;;;;;21.33;61.62;96873.56;10451276;28;20110;-25
2023/09/06 18:26:21;;;;;;;5.13;2.10;;;;;;;21.33;61.26;96873.56;10456981;28;20041;-26
2023/09/06 18:31:21;;;;;;;3.58;2.17;;;;;;;21.33;61.10;96883.75;10450277;28;20307;-26
2023/09/06 18:36:22;;;;;;;3.35;2.00;;;;;;;21.33;61.25;96878.66;10450531;28;20440;-25
2023/09/06 18:41:22;;;;;;;5.43;2.53;;;;;;;21.30;61.13;96878.66;10450836;28;20044;-27
2023/09/06 18:46:23;;;;;;;2.07;1.67;;;;;;;21.33;61.19;96886.28;10450273;28;20065;-25
2023/09/06 18:51:25;;;;;;;3.20;2.10;;;;;;;21.32;61.15;96894.75;10450018;28;20370;-25
2023/09/06 18:56:26;;;;;;;2.53;1.92;;;;;;;21.31;61.44;96890.53;10460879;28;20041;-25
2023/09/06 19:01:27;;;;;;;5.30;2.60;;;;;;;21.33;61.49;96899.03;10459621;28;20040;-25
2023/09/06 19:06:34;;;;;;;2.13;1.73;;;;;;;21.32;61.20;96902.41;10459882;28;20306;-26
2023/09/06 19:11:36;;;;;;;2.92;2.13;;;;;;;21.31;61.32;96908.34;10456739;28;20040;-25
2023/09/06 19:16:36;;;;;;;4.43;2.00;;;;;;;21.30;61.15;96909.22;10457418;28;20037;-25
2023/09/06 19:21:37;;;;;;;1.87;1.70;;;;;;;21.32;61.11;96917.69;10444594;28;20033;-25
2023/09/06 19:26:41;;;;;;;2.43;1.83;;;;;;;21.32;61.11;96917.69;10444964;28;20041;-25
2023/09/06 19:31:43;;;;;;;2.15;1.95;;;;;;;21.32;61.98;96915.13;10450773;28;20494;-25
2023/09/06 19:36:43;;;;;;;4.13;3.15;;;;;;;21.45;63.21;96910.78;10452174;28;20041;-26
2023/09/06 19:41:43;;;;;;;2.60;1.67;;;;;;;21.38;61.43;96907.44;10453211;28;20033;-25
2023/09/06 19:46:44;;;;;;;2.00;1.80;;;;;;;21.35;61.10;96912.59;10460863;28;20025;-26
2023/09/06 19:51:44;;;;;;;5.33;2.00;;;;;;;21.33;61.05;96914.31;10463008;28;20305;-26
2023/09/06 19:56:45;;;;;;;2.13;1.93;;;;;;;21.34;61.03;96905.81;10461596;28;20270;-26
2023/09/06 20:01:45;;;;;;;2.30;1.67;;;;;;;21.32;61.17;96906.66;10454426;28;20040;-25
2023/09/06 20:06:45;;;;;;;2.47;1.93;;;;;;;21.33;60.83;96903.25;10464214;28;20394;-25
2023/09/06 20:11:47;;;;;;;1.83;1.73;;;;;;;21.31;60.67;96910.91;10466510;28;20025;-27
2023/09/06 20:16:47;;;;;;;2.17;1.98;;;;;;;21.30;60.92;96909.22;10456439;28;20119;-25
2023/09/06 20:21:47;;;;;;;1.95;1.75;;;;;;;21.30;60.64;96909.22;10457973;28;20052;-24
2023/09/06 20:26:48;;;;;;;3.57;2.23;;;;;;;21.32;60.61;96912.59;10453346;28;20098;-25
2023/09/06 20:31:50;;;;;;;2.07;1.70;;;;;;;21.33;60.72;96911.75;10459578;28;20326;-27
2023/09/06 20:36:51;;;;;;;1.85;1.50;;;;;;;21.34;60.89;96908.34;10450793;28;20060;-25
2023/09/06 20:41:51;;;;;;;2.63;1.87;;;;;;;21.34;60.60;96910.03;10450247;28;20123;-28
2023/09/06 20:46:51;;;;;;;3.60;1.80;;;;;;;21.32;60.63;96907.50;10449943;28;20434;-25
2023/09/06 20:51:52;;;;;;;2.33;1.73;;;;;;;21.32;60.69;96912.59;10460528;28;20037;-25
2023/09/06 20:56:52;;;;;;;3.70;2.17;;;;;;;21.34;63.75;96900.72;10461160;28;20037;-25
2023/09/06 21:01:52;;;;;;;1.93;1.50;;;;;;;21.29;60.64;96897.34;10462107;28;20420;-26
2023/09/06 21:06:53;;;;;;;3.30;1.70;;;;;;;21.31;60.75;96895.63;10465160;28;20490;-26
2023/09/06 21:11:53;;;;;;;4.53;1.43;;;;;;;21.32;60.50;96901.56;10474184;28;20408;-25
2023/09/06 21:16:53;;;;;;;2.23;1.90;;;;;;;21.26;60.51;96897.38;10472227;28;20055;-25
2023/09/06 21:21:54;;;;;;;2.03;1.40;;;;;;;21.30;60.59;96901.56;10466603;28;20094;-25
2023/09/06 21:26:55;;;;;;;2.08;1.65;;;;;;;21.31;60.44;96898.16;10452364;28;20051;-26
2023/09/06 21:31:56;;;;;;;2.43;1.40;;;;;;;21.30;60.56;96901.56;10452010;28;20082;-25
2023/09/06 21:36:56;;;;;;;2.25;1.30;;;;;;;21.29;60.43;96907.53;10453171;28;20028;-25
2023/09/06 21:41:56;;;;;;;1.37;1.13;;;;;;;21.29;60.39;96907.53;10452361;28;20029;-25
2023/09/06 21:46:57;;;;;;;1.73;1.50;;;;;;;21.29;60.27;96901.59;10452115;28;20292;-25
2023/09/06 21:51:57;;;;;;;1.93;1.27;;;;;;;21.25;60.55;96905.88;10451952;28;20287;-25
2023/09/06 21:56:58;;;;;;;2.17;1.40;;;;;;;21.29;60.75;96917.72;10452946;28;20029;-25
2023/09/06 22:01:59;;;;;;;2.75;1.85;;;;;;;21.31;60.38;96921.09;10451875;28;20579;-25
2023/09/06 22:07:17;;;;;;;5.28;1.17;;;;;;;21.32;60.53;96920.22;10451617;28;20061;-25
2023/09/06 22:12:36;;;;;;;5.40;1.40;;;;;;;21.28;60.31;96921.13;10452214;28;20033;-25
2023/09/06 22:17:38;;;;;;;1.30;1.20;;;;;;;21.28;60.19;96916.03;10451065;28;20451;-25
2023/09/06 22:22:39;;;;;;;1.42;1.33;;;;;;;21.28;60.12;96915.16;10454250;28;20048;-25
2023/09/06 22:27:39;;;;;;;1.27;1.17;;;;;;;21.27;60.27;96918.56;10452059;28;20040;-25
2023/09/06 22:32:39;;;;;;;1.08;0.98;;;;;;;21.27;60.16;96916.91;10449100;28;20059;-25
2023/09/06 22:37:41;;;;;;;1.20;1.00;;;;;;;21.27;59.97;96924.53;10450825;28;20033;-25
2023/09/06 22:42:42;;;;;;;1.52;1.40;;;;;;;21.27;60.23;96914.34;10450111;28;20029;-25
2023/09/06 22:47:42;;;;;;;1.42;1.33;;;;;;;21.27;60.17;96924.53;10450959;28;20039;-25
2023/09/06 22:52:42;;;;;;;2.40;1.30;;;;;;;21.26;60.25;96922.84;10450212;28;20422;-25
2023/09/06 22:57:43;;;;;;;1.10;1.00;;;;;;;21.26;60.30;96925.38;10450457;28;20521;-25
2023/09/06 23:02:43;;;;;;;1.37;1.27;;;;;;;21.26;60.18;96922.00;10450569;28;20055;-25
2023/09/06 23:07:44;;;;;;;1.27;1.17;;;;;;;21.26;60.02;96927.94;10449918;28;20279;-25
2023/09/06 23:12:47;;;;;;;1.33;1.23;;;;;;;21.26;60.03;96927.09;10454481;28;20051;-25
2023/09/06 23:17:49;;;;;;;1.27;1.17;;;;;;;21.26;59.67;96925.38;10458029;28;20430;-25
2023/09/06 23:22:52;;;;;;;1.55;1.45;;;;;;;21.27;60.11;96927.09;10467870;28;20033;-25